Terminal Aerodrome Forecast
Issued by NWS

Home | Current Version | Previous Version | Text Only | Print | Product List | Glossary On
Versions: 1 2 3 4 5 6 7 8 9 10 11 12 13 14 15 16
000
FTUS46 KSGX 261121
TAFONT
TAF
KONT 261121Z 2612/2718 VRB03KT P6SM OVC015
     FM261700 VRB04KT P6SM BKN022
     FM262000 26012KT P6SM SCT200
     FM270400 25006KT P6SM SCT015
     FM270800 VRB05KT P6SM OVC012
     FM271300 VRB04KT 5SM BR OVC010
     FM271600 VRB04KT 6SM HZ SCT012=

USA.gov is the U.S. government's official web portal to all federal, state and local government web resources and services.